Time;durP1;ratioP1;P1;durP2;ratioP2;P2;SDS_P1;SDS_P2;PMS_P1;PMS_P2;Temp;Humidity;BMP_temperature;BMP_pressure;BME280_temperature;BME280_humidity;BME280_pressure;Samples;Min_cycle;Max_cycle;Signal;HPM_P1;HPM_P2
2022/04/25 00:07:46;;;;;;;3;6.2;;;;;;;9.8;77.8;97340;;;;
2022/04/25 00:17:46;;;;;;;3;6.2;;;;;;;9.8;77.9;97330;;;;
2022/04/25 00:27:46;;;;;;;2.9;5.8;;;;;;;9.8;76.9;97340;;;;
2022/04/25 00:38:46;;;;;;;2.9;5.8;;;;;;;9.5;77.4;97340;;;;
2022/04/25 00:49:46;;;;;;;2.9;5.8;;;;;;;9;78.3;97350;;;;
2022/04/25 00:59:46;;;;;;;4.4;7;;;;;;;8.7;78.8;97340;;;;
2022/04/25 01:09:46;;;;;;;4.4;7;;;;;;;8.3;79.9;97350;;;;
2022/04/25 01:19:46;;;;;;;4.4;7;;;;;;;8;80.4;97340;;;;
2022/04/25 01:30:46;;;;;;;4.7;8.5;;;;;;;7.7;81.4;97350;;;;
2022/04/25 01:40:46;;;;;;;4.7;8.5;;;;;;;7.5;81.7;97350;;;;
2022/04/25 01:51:46;;;;;;;4.7;8.5;;;;;;;7.2;83.3;97350;;;;
2022/04/25 02:02:46;;;;;;;5.1;7.7;;;;;;;7;83.7;97350;;;;
2022/04/25 02:13:46;;;;;;;5.1;7.7;;;;;;;6.9;83.4;97360;;;;
2022/04/25 02:23:46;;;;;;;5.1;7.7;;;;;;;6.9;84.4;97360;;;;
2022/04/25 02:34:46;;;;;;;5.9;9.1;;;;;;;6.8;84.6;97370;;;;
2022/04/25 02:45:45;;;;;;;5.9;9.1;;;;;;;7.1;85.6;97370;;;;
2022/04/25 02:56:46;;;;;;;5.8;8.8;;;;;;;7.3;85.2;97390;;;;
2022/04/25 03:07:46;;;;;;;5.8;8.8;;;;;;;7.5;85.7;97390;;;;
2022/04/25 03:17:46;;;;;;;5.8;8.8;;;;;;;7.6;85;97390;;;;
2022/04/25 03:28:46;;;;;;;4.7;7.8;;;;;;;7.8;84.7;97380;;;;
2022/04/25 03:38:46;;;;;;;4.7;7.8;;;;;;;8;84.3;97390;;;;
2022/04/25 03:49:45;;;;;;;4.7;7.8;;;;;;;8;83.8;97390;;;;
2022/04/25 03:59:46;;;;;;;4;6.2;;;;;;;8.2;83.6;97390;;;;
2022/04/25 04:09:46;;;;;;;4;6.2;;;;;;;8.3;83.1;97390;;;;
2022/04/25 04:20:46;;;;;;;4;6.2;;;;;;;8.4;83.1;97410;;;;
2022/04/25 04:30:46;;;;;;;4.9;7.7;;;;;;;8.5;82.2;97430;;;;
2022/04/25 04:41:46;;;;;;;4.9;7.7;;;;;;;8.4;82.9;97430;;;;
2022/04/25 04:52:46;;;;;;;4.9;7.7;;;;;;;8.8;82.6;97440;;;;
2022/04/25 05:02:46;;;;;;;11.8;15;;;;;;;8.9;81.1;97450;;;;
2022/04/25 05:13:46;;;;;;;11.8;15;;;;;;;9.2;80.9;97460;;;;
2022/04/25 05:23:46;;;;;;;9.7;13.5;;;;;;;9.4;80.4;97470;;;;
2022/04/25 05:33:46;;;;;;;9.7;13.5;;;;;;;9.7;80.6;97490;;;;
2022/04/25 05:43:46;;;;;;;9.7;13.5;;;;;;;10.1;79.8;97490;;;;
2022/04/25 05:54:46;;;;;;;10.5;14.3;;;;;;;10.3;78.6;97490;;;;
2022/04/25 06:04:46;;;;;;;10.5;14.3;;;;;;;10.7;78.3;97500;;;;
2022/04/25 06:14:48;;;;;;;10.5;14.3;;;;;;;11.1;78.5;97500;;;;
2022/04/25 06:25:46;;;;;;;8;11.4;;;;;;;11.6;77.9;97500;;;;
2022/04/25 06:36:46;;;;;;;8;11.4;;;;;;;12;76.7;97510;;;;
2022/04/25 06:46:46;;;;;;;8;11.4;;;;;;;12;76;97510;;;;
2022/04/25 06:56:46;;;;;;;7.5;10.5;;;;;;;12.4;75.8;97510;;;;
2022/04/25 07:07:46;;;;;;;7.5;10.5;;;;;;;12.7;74.7;97500;;;;
2022/04/25 07:18:46;;;;;;;7.5;10.5;;;;;;;13;74.6;97490;;;;
2022/04/25 07:28:49;;;;;;;10.4;14.4;;;;;;;13.4;72.7;97500;;;;
2022/04/25 07:38:46;;;;;;;10.4;14.4;;;;;;;13.9;71.3;97500;;;;
2022/04/25 07:49:46;;;;;;;10.4;14.4;;;;;;;14.1;70.2;97530;;;;
2022/04/25 07:59:47;;;;;;;8.3;10.5;;;;;;;14;69.4;97540;;;;
2022/04/25 08:10:46;;;;;;;8.3;10.5;;;;;;;13.3;70.7;97550;;;;
2022/04/25 08:20:47;;;;;;;8.3;10.5;;;;;;;13;73.4;97550;;;;
2022/04/25 08:31:46;;;;;;;7.6;10.6;;;;;;;13;74.7;97540;;;;
2022/04/25 08:41:46;;;;;;;7.6;10.6;;;;;;;13.1;75.3;97550;;;;
2022/04/25 08:51:47;;;;;;;7.6;10.6;;;;;;;13.8;75.8;97560;;;;
2022/04/25 09:02:47;;;;;;;6.8;10.2;;;;;;;14.2;73.3;97560;;;;
2022/04/25 09:12:46;;;;;;;6.8;10.2;;;;;;;14.6;71;97570;;;;
2022/04/25 09:22:46;;;;;;;6.8;10.2;;;;;;;14.6;71.9;97580;;;;
2022/04/25 09:33:46;;;;;;;8.9;14.4;;;;;;;14.7;70.4;97580;;;;
2022/04/25 09:44:46;;;;;;;8.9;14.4;;;;;;;15.3;68.3;97590;;;;
2022/04/25 09:55:46;;;;;;;6.1;10.3;;;;;;;15;70.7;97580;;;;
2022/04/25 10:06:46;;;;;;;6.1;10.3;;;;;;;15.1;69.9;97590;;;;
2022/04/25 10:17:46;;;;;;;6.1;10.3;;;;;;;15;67.3;97590;;;;
2022/04/25 10:28:48;;;;;;;4.9;7.2;;;;;;;15.2;67;97600;;;;
2022/04/25 10:39:46;;;;;;;4.9;7.2;;;;;;;15.5;66.8;97590;;;;
2022/04/25 10:50:46;;;;;;;4.9;7.2;;;;;;;16.1;66.6;97600;;;;
2022/04/25 11:01:46;;;;;;;6.9;10.1;;;;;;;16.5;64.1;97610;;;;
2022/04/25 11:11:46;;;;;;;6.9;10.1;;;;;;;16.6;62.9;97610;;;;
2022/04/25 11:22:46;;;;;;;6.9;10.1;;;;;;;16.7;60.3;97610;;;;
2022/04/25 11:32:46;;;;;;;5.1;7.7;;;;;;;16.6;62.4;97630;;;;
2022/04/25 11:43:46;;;;;;;5.1;7.7;;;;;;;16.4;63.6;97640;;;;
2022/04/25 11:53:46;;;;;;;4.5;7;;;;;;;16.2;63.3;97640;;;;
2022/04/25 12:03:46;;;;;;;4.5;7;;;;;;;15.7;66.4;97640;;;;
2022/04/25 12:15:50;;;;;;;4.5;7;;;;;;;16.4;63.4;97650;;;;
2022/04/25 12:25:46;;;;;;;2.6;6.6;;;;;;;16.5;61.6;97660;;;;
2022/04/25 12:36:46;;;;;;;2.6;6.6;;;;;;;17.8;57.4;97660;;;;
2022/04/25 12:46:46;;;;;;;2.6;6.6;;;;;;;17.8;53.9;97680;;;;
2022/04/25 12:56:46;;;;;;;1.5;3.2;;;;;;;17.1;56.8;97680;;;;
2022/04/25 13:07:46;;;;;;;1.5;3.2;;;;;;;17.3;56.9;97680;;;;
2022/04/25 13:17:46;;;;;;;1.5;3.2;;;;;;;17.3;55.1;97670;;;;
2022/04/25 13:27:46;;;;;;;1.9;4.3;;;;;;;16.9;54.7;97680;;;;
2022/04/25 13:38:46;;;;;;;1.9;4.3;;;;;;;16.2;59.4;97690;;;;
2022/04/25 13:48:46;;;;;;;1.9;4.3;;;;;;;14.8;62.8;97720;;;;
2022/04/25 13:59:46;;;;;;;4.7;9;;;;;;;14.8;62.6;97750;;;;
2022/04/25 14:10:46;;;;;;;4.7;9;;;;;;;14.5;62.8;97760;;;;
2022/04/25 14:20:46;;;;;;;4.7;9;;;;;;;14.6;63;97770;;;;
2022/04/25 14:31:47;;;;;;;2;4.1;;;;;;;15.5;61.9;97770;;;;
2022/04/25 14:41:46;;;;;;;2;4.1;;;;;;;15.5;62.4;97780;;;;
2022/04/25 15:03:46;;;;;;;4.9;7;;;;;;;15.6;62.4;97800;;;;
2022/04/25 15:14:46;;;;;;;4.9;7;;;;;;;16.2;60.9;97810;;;;
2022/04/25 15:24:46;;;;;;;9.8;13;;;;;;;15.3;64.1;97830;;;;
2022/04/25 15:35:47;;;;;;;9.8;13;;;;;;;14.3;66.1;97820;;;;
2022/04/25 15:45:46;;;;;;;9.8;13;;;;;;;14.1;67.2;97830;;;;
2022/04/25 16:06:47;;;;;;;10.9;13.3;;;;;;;14.2;68.1;97830;;;;
2022/04/25 16:17:48;;;;;;;10.9;13.3;;;;;;;13.7;67.4;97850;;;;
2022/04/25 16:27:46;;;;;;;11.8;14.2;;;;;;;13.3;67.8;97860;;;;
2022/04/25 16:38:46;;;;;;;11.8;14.2;;;;;;;13.5;67.3;97870;;;;
2022/04/25 16:49:46;;;;;;;11.8;14.2;;;;;;;13.4;66.9;97890;;;;
2022/04/25 17:00:46;;;;;;;8.6;14.5;;;;;;;12.7;65.7;97900;;;;
2022/04/25 17:10:46;;;;;;;8.6;14.5;;;;;;;12.5;66.9;97910;;;;
2022/04/25 17:20:46;;;;;;;8.6;14.5;;;;;;;12;68.5;97920;;;;
